createdAt,value
2023-02-12T00:00:53.000Z,14.80
2023-02-12T00:03:19.981Z,15.10
2023-02-12T00:05:46.979Z,14.43
2023-02-12T00:08:16.328Z,14.55
2023-02-12T00:10:43.810Z,14.93
2023-02-12T00:13:11.632Z,14.50
2023-02-12T00:15:39.865Z,14.38
2023-02-12T00:18:06.848Z,14.50
2023-02-12T00:20:33.788Z,15.30
2023-02-12T00:23:00.961Z,15.90
2023-02-12T00:25:27.878Z,15.48
2023-02-12T00:27:54.849Z,16.10
2023-02-12T00:30:21.841Z,14.68
2023-02-12T00:32:48.869Z,15.68
2023-02-12T00:35:16.261Z,16.90
2023-02-12T00:37:43.614Z,15.77
2023-02-12T00:40:10.817Z,18.83
2023-02-12T00:42:39.342Z,17.80
2023-02-12T00:45:06.607Z,16.25
2023-02-12T00:47:33.551Z,17.73
2023-02-12T00:50:00.511Z,18.15
2023-02-12T00:52:27.444Z,17.98
2023-02-12T00:54:54.410Z,18.85
2023-02-12T00:57:21.372Z,19.27
2023-02-12T00:59:49.721Z,17.30
2023-02-12T01:02:18.221Z,18.73
2023-02-12T01:04:46.956Z,18.65
2023-02-12T01:07:13.960Z,17.55
2023-02-12T01:09:41.169Z,18.67
2023-02-12T01:12:08.516Z,21.27
2023-02-12T01:14:35.559Z,19.90
2023-02-12T01:17:03.910Z,19.60
2023-02-12T01:19:30.886Z,18.67
2023-02-12T01:21:58.141Z,16.70
2023-02-12T01:24:25.044Z,18.13
2023-02-12T01:26:51.950Z,17.70
2023-02-12T01:29:18.906Z,17.92
2023-02-12T01:31:46.005Z,19.10
2023-02-12T01:34:13.241Z,19.00
2023-02-12T01:36:40.285Z,18.80
2023-02-12T01:39:07.230Z,18.48
2023-02-12T01:41:36.311Z,17.50
2023-02-12T01:44:12.486Z,19.45
2023-02-12T01:46:40.156Z,17.73
2023-02-12T01:49:13.056Z,19.63
2023-02-12T01:51:40.005Z,19.30
2023-02-12T01:54:08.376Z,19.17
2023-02-12T01:56:35.289Z,18.67
2023-02-12T01:59:02.274Z,18.23
2023-02-12T02:01:32.694Z,18.40
2023-02-12T02:04:02.891Z,18.30
2023-02-12T02:06:35.363Z,16.92
2023-02-12T02:09:02.838Z,18.90
2023-02-12T02:11:48.308Z,18.98
2023-02-12T02:14:33.724Z,18.70
2023-02-12T02:17:07.166Z,17.98
2023-02-12T02:19:40.113Z,18.88
2023-02-12T02:22:16.216Z,19.25
2023-02-12T02:25:01.928Z,18.48
2023-02-12T02:27:50.641Z,17.63
2023-02-12T02:30:29.652Z,17.45
2023-02-12T02:33:06.556Z,16.00
2023-02-12T02:35:56.210Z,17.58
2023-02-12T02:38:45.039Z,18.27
2023-02-12T02:41:17.908Z,17.63
2023-02-12T02:43:49.641Z,17.20
2023-02-12T02:46:26.115Z,17.77
2023-02-12T02:48:54.381Z,17.55
2023-02-12T02:51:27.729Z,17.40
2023-02-12T02:54:07.766Z,18.13
2023-02-12T02:56:36.400Z,16.52
2023-02-12T02:59:09.990Z,18.15
2023-02-12T03:01:41.899Z,17.83
2023-02-12T03:04:21.401Z,17.92
2023-02-12T03:06:53.690Z,17.67
2023-02-12T03:09:32.107Z,17.45
2023-02-12T03:12:03.312Z,17.02
2023-02-12T03:14:32.661Z,17.80
2023-02-12T03:17:35.593Z,16.85
2023-02-12T03:20:08.294Z,15.45
2023-02-12T03:22:36.641Z,16.83
2023-02-12T03:25:09.739Z,17.85
2023-02-12T03:27:44.590Z,16.88
2023-02-12T03:30:11.955Z,17.23
2023-02-12T03:32:41.579Z,18.73
2023-02-12T03:35:23.759Z,18.35
2023-02-12T03:38:01.876Z,16.88
2023-02-12T03:40:37.848Z,19.38
2023-02-12T03:43:23.080Z,18.80
2023-02-12T03:46:15.327Z,19.48
2023-02-12T03:49:03.430Z,19.92
2023-02-12T03:51:32.801Z,20.73
2023-02-12T03:53:59.753Z,18.88
2023-02-12T03:56:43.502Z,18.67
2023-02-12T04:01:37.461Z,18.00
2023-02-12T04:04:06.070Z,20.23
2023-02-12T04:06:33.045Z,19.88
2023-02-12T04:09:05.993Z,18.95
2023-02-12T04:11:47.660Z,18.25
2023-02-12T04:14:23.305Z,20.08
2023-02-12T04:17:14.088Z,18.27
2023-02-12T04:19:47.270Z,20.00
2023-02-12T04:22:39.005Z,18.95
2023-02-12T04:25:23.416Z,20.13
2023-02-12T04:28:19.954Z,19.08
2023-02-12T04:30:52.827Z,17.98
2023-02-12T04:33:21.008Z,20.10
2023-02-12T04:35:55.618Z,18.80
2023-02-12T04:38:25.044Z,19.27
2023-02-12T04:40:52.017Z,20.50
2023-02-12T04:43:31.602Z,19.75
2023-02-12T04:45:59.008Z,19.00
2023-02-12T04:48:26.146Z,17.50
2023-02-12T04:50:53.126Z,17.27
2023-02-12T04:53:20.133Z,19.48
2023-02-12T04:55:47.776Z,19.05
2023-02-12T04:58:14.722Z,19.58
2023-02-12T05:00:41.712Z,19.10
2023-02-12T05:03:08.654Z,20.83
2023-02-12T05:05:35.669Z,18.40
2023-02-12T05:08:02.641Z,17.88
2023-02-12T05:10:29.586Z,18.40
2023-02-12T05:12:56.544Z,20.45
2023-02-12T05:15:23.572Z,18.00
2023-02-12T05:17:50.644Z,18.52
2023-02-12T05:20:17.644Z,18.52
2023-02-12T05:22:44.619Z,18.98
2023-02-12T05:25:11.893Z,19.92
2023-02-12T05:27:38.910Z,18.02
2023-02-12T05:30:06.358Z,18.48
2023-02-12T05:32:33.319Z,19.08
2023-02-12T05:35:00.216Z,19.02
2023-02-12T05:37:27.351Z,17.75
2023-02-12T05:39:54.356Z,19.52
2023-02-12T05:42:21.341Z,18.98
2023-02-12T05:44:48.334Z,17.42
2023-02-12T05:47:15.285Z,19.65
2023-02-12T05:49:42.850Z,19.77
2023-02-12T05:52:09.787Z,18.20
2023-02-12T05:54:36.701Z,17.15
2023-02-12T05:57:04.042Z,20.38
2023-02-12T05:59:31.025Z,18.33
2023-02-12T06:01:57.996Z,18.38
2023-02-12T06:04:27.145Z,18.13
2023-02-12T06:06:54.498Z,20.35
2023-02-12T06:09:21.645Z,20.35
2023-02-12T06:11:48.642Z,19.52
2023-02-12T06:14:16.948Z,19.70
2023-02-12T06:16:50.874Z,19.13
2023-02-12T06:19:18.265Z,18.42
2023-02-12T06:21:45.210Z,20.10
2023-02-12T06:24:12.812Z,18.65
2023-02-12T06:26:39.758Z,19.10
2023-02-12T06:29:06.748Z,17.08
2023-02-12T06:31:34.853Z,18.05
2023-02-12T06:34:03.810Z,18.20
2023-02-12T06:36:30.870Z,17.52
2023-02-12T06:38:57.861Z,19.35
2023-02-12T06:41:24.841Z,19.95
2023-02-12T06:43:51.920Z,18.95
2023-02-12T06:46:19.464Z,19.90
2023-02-12T06:48:46.734Z,19.48
2023-02-12T06:51:17.866Z,18.65
2023-02-12T06:53:44.904Z,17.20
2023-02-12T06:56:13.353Z,17.65
2023-02-12T06:58:41.568Z,19.40
2023-02-12T07:01:15.523Z,18.00
2023-02-12T07:03:42.691Z,18.33
2023-02-12T07:06:09.812Z,19.40
2023-02-12T07:08:36.894Z,18.25
2023-02-12T07:11:04.207Z,18.65
2023-02-12T07:13:31.448Z,19.38
2023-02-12T07:15:58.733Z,19.42
2023-02-12T07:18:26.084Z,18.65
2023-02-12T07:20:53.082Z,19.60
2023-02-12T07:23:20.066Z,19.27
2023-02-12T07:25:58.269Z,17.98
2023-02-12T07:28:25.427Z,17.75
2023-02-12T07:30:52.541Z,18.00
2023-02-12T07:33:19.700Z,19.02
2023-02-12T07:35:46.626Z,19.35
2023-02-12T07:38:13.634Z,19.45
2023-02-12T07:40:40.605Z,20.25
2023-02-12T07:43:07.547Z,18.45
2023-02-12T07:45:36.253Z,18.73
2023-02-12T07:48:03.297Z,20.13
2023-02-12T07:50:30.270Z,19.08
2023-02-12T07:52:57.490Z,21.77
2023-02-12T07:55:24.489Z,20.60
2023-02-12T07:57:51.447Z,21.13
2023-02-12T08:00:19.062Z,22.52
2023-02-12T08:02:53.813Z,21.48
2023-02-12T08:05:20.883Z,22.98
2023-02-12T08:07:47.916Z,23.73
2023-02-12T08:10:15.016Z,24.23
2023-02-12T08:12:41.995Z,24.05
2023-02-12T08:15:09.243Z,24.75
2023-02-12T08:17:36.249Z,25.73
2023-02-12T08:20:03.409Z,25.00
2023-02-12T08:22:30.404Z,26.92
2023-02-12T08:24:57.342Z,23.00
2023-02-12T08:27:24.244Z,23.13
2023-02-12T08:29:51.211Z,24.40
2023-02-12T08:32:18.184Z,21.23
2023-02-12T08:34:45.184Z,18.85
2023-02-12T08:37:12.152Z,18.17
2023-02-12T08:39:39.131Z,16.45
2023-02-12T08:42:06.155Z,17.55
2023-02-12T08:44:33.180Z,17.00
2023-02-12T08:47:00.240Z,16.55
2023-02-12T08:49:28.658Z,18.50
2023-02-12T08:51:57.463Z,16.40
2023-02-12T08:54:26.073Z,15.80
2023-02-12T08:57:00.602Z,17.83
2023-02-12T08:59:27.592Z,15.15
2023-02-12T09:01:55.158Z,17.83
2023-02-12T09:04:23.861Z,16.73
2023-02-12T09:06:51.071Z,19.90
2023-02-12T09:09:18.162Z,21.92
2023-02-12T09:11:45.183Z,19.67
2023-02-12T09:14:14.138Z,20.15
2023-02-12T09:16:41.417Z,22.50
2023-02-12T09:19:08.989Z,18.35
2023-02-12T09:21:36.114Z,17.08
2023-02-12T09:24:03.777Z,20.02
2023-02-12T09:26:30.972Z,18.80
2023-02-12T09:28:58.681Z,20.90
2023-02-12T09:31:29.341Z,20.65
2023-02-12T09:33:59.619Z,19.98
2023-02-12T09:36:26.525Z,23.15
2023-02-12T09:38:54.397Z,20.98
2023-02-12T09:41:46.131Z,21.33
2023-02-12T09:44:50.716Z,21.17
2023-02-12T09:47:20.679Z,21.55
2023-02-12T09:49:56.723Z,21.25
2023-02-12T09:52:26.730Z,19.75
2023-02-12T09:54:53.753Z,19.25
2023-02-12T09:57:25.601Z,17.63
2023-02-12T10:00:02.160Z,17.15
2023-02-12T10:02:31.874Z,12.13
2023-02-12T10:05:02.061Z,16.05
2023-02-12T10:08:28.024Z,10.18
2023-02-12T10:11:30.259Z,10.82
2023-02-12T10:14:04.168Z,11.52
2023-02-12T10:16:49.669Z,13.43
2023-02-12T10:19:41.035Z,16.65
2023-02-12T10:22:32.841Z,21.08
2023-02-12T10:25:06.659Z,16.08
2023-02-12T10:27:43.667Z,20.33
2023-02-12T10:30:27.067Z,24.27
2023-02-12T10:33:18.190Z,18.60
2023-02-12T10:35:49.281Z,19.65
2023-02-12T10:38:20.197Z,15.07
2023-02-12T10:40:47.231Z,14.07
2023-02-12T10:43:14.219Z,13.43
2023-02-12T10:45:42.234Z,17.05
2023-02-12T10:48:28.030Z,18.25
2023-02-12T10:51:05.991Z,17.67
2023-02-12T10:53:33.084Z,16.33
2023-02-12T10:56:12.118Z,14.07
2023-02-12T10:59:03.108Z,16.38
2023-02-12T11:01:39.298Z,16.58
2023-02-12T11:04:28.772Z,16.05
2023-02-12T11:07:06.949Z,14.57
2023-02-12T11:09:45.553Z,15.52
2023-02-12T11:12:37.727Z,15.27
2023-02-12T11:15:21.077Z,12.77
2023-02-12T11:18:05.492Z,13.88
2023-02-12T11:20:49.005Z,13.20
2023-02-12T11:23:29.476Z,13.25
2023-02-12T11:26:00.411Z,12.73
2023-02-12T11:28:27.609Z,14.73
2023-02-12T11:31:19.168Z,13.07
2023-02-12T11:33:46.121Z,13.23
2023-02-12T11:36:24.895Z,13.05
2023-02-12T11:38:56.123Z,12.35
2023-02-12T11:43:56.514Z,13.95
2023-02-12T11:46:25.442Z,14.52
2023-02-12T11:48:52.923Z,15.25
2023-02-12T11:51:29.335Z,14.75
2023-02-12T11:54:01.372Z,15.40
2023-02-12T11:56:45.334Z,13.40
2023-02-12T11:59:36.022Z,15.65
2023-02-12T12:02:28.679Z,15.43
2023-02-12T12:04:58.660Z,14.60
2023-02-12T12:07:28.422Z,14.75
2023-02-12T12:09:59.815Z,12.60
2023-02-12T12:12:39.282Z,13.80
2023-02-12T12:15:29.702Z,14.50
2023-02-12T12:18:19.881Z,14.43
2023-02-12T12:21:00.468Z,14.10
2023-02-12T12:23:40.129Z,14.35
2023-02-12T12:26:08.841Z,14.60
2023-02-12T12:28:46.575Z,13.43
2023-02-12T12:31:20.710Z,14.25
2023-02-12T12:34:07.591Z,13.85
2023-02-12T12:37:08.483Z,14.98
2023-02-12T12:39:53.500Z,14.18
2023-02-12T12:42:47.108Z,12.00
2023-02-12T12:45:26.323Z,14.45
2023-02-12T12:47:55.964Z,14.35
2023-02-12T12:50:38.067Z,13.77
2023-02-12T12:53:30.197Z,14.02
2023-02-12T12:56:28.278Z,14.98
2023-02-12T12:59:12.232Z,13.27
2023-02-12T13:02:16.711Z,12.63
2023-02-12T13:04:52.285Z,22.05
2023-02-12T13:07:50.352Z,13.18
2023-02-12T13:10:43.101Z,13.07
2023-02-12T13:13:31.326Z,11.85
2023-02-12T13:16:04.473Z,11.32
2023-02-12T13:18:37.141Z,11.20
2023-02-12T13:21:11.183Z,13.45
2023-02-12T13:24:04.117Z,13.27
2023-02-12T13:26:55.025Z,13.35
2023-02-12T13:29:26.476Z,12.77
2023-02-12T13:32:22.425Z,13.25
2023-02-12T13:34:49.624Z,12.90
2023-02-12T13:37:19.243Z,12.45
2023-02-12T13:39:48.219Z,13.43
2023-02-12T13:42:27.393Z,13.95
2023-02-12T13:45:02.189Z,14.05
2023-02-12T13:47:39.556Z,14.20
2023-02-12T13:50:37.387Z,12.93
2023-02-12T13:53:27.357Z,13.57
2023-02-12T13:56:21.728Z,13.23
2023-02-12T13:58:51.777Z,13.82
2023-02-12T14:01:49.325Z,14.30
2023-02-12T14:04:37.786Z,14.02
2023-02-12T14:07:14.678Z,12.38
2023-02-12T14:10:01.776Z,12.98
2023-02-12T14:12:34.690Z,12.85
2023-02-12T14:15:17.091Z,13.98
2023-02-12T14:17:52.743Z,14.18
2023-02-12T14:20:30.361Z,12.75
2023-02-12T14:23:02.525Z,13.32
2023-02-12T14:25:44.132Z,11.77
2023-02-12T14:28:18.518Z,12.95
2023-02-12T14:30:45.529Z,13.45
2023-02-12T14:33:23.863Z,14.07
2023-02-12T14:36:17.737Z,12.43
2023-02-12T14:38:47.860Z,13.57
2023-02-12T14:41:42.670Z,13.25
2023-02-12T14:44:27.388Z,13.50
2023-02-12T14:46:58.065Z,12.23
2023-02-12T14:49:46.689Z,12.65
2023-02-12T14:52:13.554Z,12.57
2023-02-12T14:54:57.196Z,11.88
2023-02-12T14:57:27.247Z,15.90
2023-02-12T14:59:59.866Z,13.40
2023-02-12T15:02:29.644Z,11.98
2023-02-12T15:05:05.675Z,10.82
2023-02-12T15:07:45.029Z,12.13
2023-02-12T15:10:40.286Z,10.57
2023-02-12T15:13:18.837Z,10.45
2023-02-12T15:15:55.098Z,9.60
2023-02-12T15:18:27.641Z,11.75
2023-02-12T15:21:02.228Z,10.13
2023-02-12T15:23:39.344Z,11.15
2023-02-12T15:26:07.287Z,9.88
2023-02-12T15:28:36.422Z,10.25
2023-02-12T15:31:04.713Z,11.45
2023-02-12T15:33:33.787Z,10.60
2023-02-12T15:36:01.340Z,11.18
2023-02-12T15:38:39.892Z,10.25
2023-02-12T15:41:07.274Z,11.90
2023-02-12T15:43:35.421Z,10.40
2023-02-12T15:46:03.743Z,9.80
2023-02-12T15:48:32.605Z,10.68
2023-02-12T15:51:08.630Z,9.60
2023-02-12T15:53:36.812Z,9.98
2023-02-12T15:56:03.979Z,11.23
2023-02-12T15:58:32.280Z,10.05
2023-02-12T16:01:03.850Z,12.75
2023-02-12T16:03:35.910Z,10.77
2023-02-12T16:06:14.146Z,10.65
2023-02-12T16:08:41.821Z,12.52
2023-02-12T16:11:15.283Z,15.05
2023-02-12T16:13:44.812Z,15.48
2023-02-12T16:16:11.669Z,18.00
2023-02-12T16:18:39.258Z,19.05
2023-02-12T16:21:12.313Z,17.65
2023-02-12T16:23:39.307Z,17.60
2023-02-12T16:26:06.338Z,15.10
2023-02-12T16:28:33.646Z,13.98
2023-02-12T16:31:11.793Z,12.50
2023-02-12T16:33:52.743Z,14.18
2023-02-12T16:36:19.652Z,15.73
2023-02-12T16:38:47.550Z,16.63
2023-02-12T16:41:31.216Z,15.95
2023-02-12T16:44:00.865Z,15.75
2023-02-12T16:46:51.482Z,15.05
2023-02-12T16:49:19.779Z,14.65
2023-02-12T16:51:46.867Z,15.98
2023-02-12T16:54:31.184Z,15.88
2023-02-12T16:56:58.369Z,15.73
2023-02-12T16:59:25.375Z,15.05
2023-02-12T17:02:03.939Z,16.75
2023-02-12T17:04:30.977Z,15.32
2023-02-12T17:06:58.167Z,18.30
2023-02-12T17:09:25.184Z,16.33
2023-02-12T17:11:52.125Z,16.48
2023-02-12T17:14:19.973Z,16.73
2023-02-12T17:16:47.022Z,16.25
2023-02-12T17:19:14.203Z,16.70
2023-02-12T17:21:42.799Z,18.25
2023-02-12T17:24:29.464Z,19.00
2023-02-12T17:26:56.518Z,20.15
2023-02-12T17:29:25.927Z,23.98
2023-02-12T17:31:56.345Z,27.02
2023-02-12T17:34:23.456Z,28.73
2023-02-12T17:36:50.529Z,25.80
2023-02-12T17:39:19.754Z,23.17
2023-02-12T17:41:46.940Z,22.25
2023-02-12T17:44:15.174Z,22.50
2023-02-12T17:46:42.839Z,20.83
2023-02-12T17:49:10.062Z,20.50
2023-02-12T17:51:37.176Z,18.27
2023-02-12T17:54:04.430Z,16.90
2023-02-12T17:56:31.601Z,14.45
2023-02-12T17:58:58.684Z,14.45
2023-02-12T18:01:25.885Z,15.00
2023-02-12T18:03:54.591Z,16.30
2023-02-12T18:06:26.850Z,12.88
2023-02-12T18:08:53.894Z,14.57
2023-02-12T18:11:20.940Z,14.60
2023-02-12T18:13:47.970Z,16.20
2023-02-12T18:16:15.339Z,16.25
2023-02-12T18:18:42.487Z,16.95
2023-02-12T18:21:10.707Z,16.48
2023-02-12T18:23:38.110Z,17.73
2023-02-12T18:26:08.792Z,18.10
2023-02-12T18:28:35.990Z,14.55
2023-02-12T18:31:03.237Z,15.70
2023-02-12T18:33:30.397Z,16.27
2023-02-12T18:36:01.814Z,18.65
2023-02-12T18:38:28.989Z,15.05
2023-02-12T18:40:57.340Z,14.88
2023-02-12T18:43:24.935Z,14.38
2023-02-12T18:45:52.020Z,14.23
2023-02-12T18:48:18.998Z,14.43
2023-02-12T18:50:45.976Z,14.30
2023-02-12T18:53:13.224Z,14.23
2023-02-12T18:55:41.230Z,15.57
2023-02-12T18:58:08.215Z,13.10
2023-02-12T19:00:35.302Z,13.57
2023-02-12T19:03:02.405Z,14.20
2023-02-12T19:05:30.897Z,13.13
2023-02-12T19:07:58.208Z,13.90
2023-02-12T19:10:25.147Z,12.93
2023-02-12T19:12:52.474Z,14.45
2023-02-12T19:15:19.598Z,16.27
2023-02-12T19:17:46.604Z,16.02
2023-02-12T19:20:14.926Z,15.38
2023-02-12T19:22:42.221Z,15.55
2023-02-12T19:25:09.525Z,15.20
2023-02-12T19:27:36.519Z,14.25
2023-02-12T19:30:04.115Z,14.00
2023-02-12T19:32:31.115Z,15.75
2023-02-12T19:34:58.139Z,13.15
2023-02-12T19:37:25.080Z,12.57
2023-02-12T19:39:52.043Z,13.55
2023-02-12T19:42:20.557Z,15.82
2023-02-12T19:44:47.620Z,13.25
2023-02-12T19:47:14.800Z,12.25
2023-02-12T19:49:42.184Z,13.18
2023-02-12T19:52:09.168Z,11.75
2023-02-12T19:54:36.722Z,12.52
2023-02-12T19:57:08.982Z,12.80
2023-02-12T19:59:36.368Z,13.55
2023-02-12T20:02:03.610Z,14.95
2023-02-12T20:04:31.074Z,14.60
2023-02-12T20:06:58.236Z,14.98
2023-02-12T20:09:25.524Z,15.57
2023-02-12T20:11:52.628Z,15.32
2023-02-12T20:14:21.022Z,13.63
2023-02-12T20:16:48.274Z,14.25
2023-02-12T20:19:21.394Z,12.38
2023-02-12T20:21:53.317Z,14.05
2023-02-12T20:24:23.982Z,13.52
2023-02-12T20:26:51.123Z,11.60
2023-02-12T20:29:18.156Z,14.52
2023-02-12T20:31:45.389Z,13.02
2023-02-12T20:34:14.159Z,15.02
2023-02-12T20:36:42.016Z,16.88
2023-02-12T20:39:10.412Z,15.95
2023-02-12T20:41:37.416Z,15.88
2023-02-12T20:44:05.266Z,15.15
2023-02-12T20:46:32.182Z,16.58
2023-02-12T20:48:59.373Z,15.32
2023-02-12T20:51:26.842Z,17.92
2023-02-12T20:53:55.472Z,16.65
2023-02-12T20:56:27.778Z,16.75
2023-02-12T20:58:54.847Z,14.30
2023-02-12T21:01:25.571Z,15.93
2023-02-12T21:03:53.295Z,16.40
2023-02-12T21:06:20.580Z,17.00
2023-02-12T21:08:47.591Z,17.13
2023-02-12T21:11:16.237Z,17.40
2023-02-12T21:13:53.832Z,18.23
2023-02-12T21:16:33.507Z,16.58
2023-02-12T21:19:00.570Z,17.88
2023-02-12T21:21:35.695Z,16.58
2023-02-12T21:24:04.270Z,15.85
2023-02-12T21:26:32.020Z,17.77
2023-02-12T21:28:59.817Z,16.65
2023-02-12T21:31:32.092Z,16.80
2023-02-12T21:33:59.870Z,15.68
2023-02-12T21:36:40.165Z,15.07
2023-02-12T21:39:09.360Z,16.48
2023-02-12T21:41:37.872Z,14.77
2023-02-12T21:44:07.203Z,14.40
2023-02-12T21:46:34.853Z,12.85
2023-02-12T21:49:01.987Z,12.82
2023-02-12T21:51:33.543Z,16.08
2023-02-12T21:54:02.541Z,19.35
2023-02-12T21:56:29.890Z,17.98
2023-02-12T21:58:58.283Z,17.05
2023-02-12T22:01:29.223Z,16.27
2023-02-12T22:03:56.169Z,15.70
2023-02-12T22:06:23.500Z,15.05
2023-02-12T22:08:51.063Z,15.23
2023-02-12T22:11:18.273Z,14.85
2023-02-12T22:13:45.216Z,13.65
2023-02-12T22:16:23.307Z,14.18
2023-02-12T22:18:52.165Z,13.13
2023-02-12T22:21:19.282Z,13.43
2023-02-12T22:23:46.252Z,13.95
2023-02-12T22:26:17.443Z,14.00
2023-02-12T22:28:49.131Z,13.80
2023-02-12T22:31:22.003Z,14.45
2023-02-12T22:33:49.291Z,13.02
2023-02-12T22:36:18.060Z,12.48
2023-02-12T22:38:45.074Z,11.15
2023-02-12T22:41:12.223Z,11.43
2023-02-12T22:43:39.782Z,12.63
2023-02-12T22:46:07.774Z,11.77
2023-02-12T22:48:35.028Z,11.52
2023-02-12T22:51:08.206Z,11.75
2023-02-12T22:53:35.313Z,12.18
2023-02-12T22:56:03.922Z,13.10
2023-02-12T22:58:30.907Z,11.73
2023-02-12T23:00:58.207Z,12.00
2023-02-12T23:03:25.535Z,11.52
2023-02-12T23:05:52.520Z,11.75
2023-02-12T23:08:19.753Z,12.65
2023-02-12T23:10:46.745Z,12.23
2023-02-12T23:13:27.906Z,12.82
2023-02-12T23:15:56.314Z,11.98
2023-02-12T23:18:23.535Z,12.55
2023-02-12T23:20:51.059Z,11.88
2023-02-12T23:23:18.099Z,12.38
2023-02-12T23:25:45.247Z,13.07
2023-02-12T23:28:12.338Z,12.90
2023-02-12T23:30:39.441Z,12.88
2023-02-12T23:33:06.466Z,11.98
2023-02-12T23:35:33.676Z,12.27
2023-02-12T23:38:00.641Z,13.05
2023-02-12T23:40:27.771Z,12.32
2023-02-12T23:42:54.921Z,12.43
2023-02-12T23:45:21.880Z,12.98
2023-02-12T23:47:48.831Z,13.50
2023-02-12T23:50:16.094Z,12.27
2023-02-12T23:52:43.103Z,11.88
2023-02-12T23:55:10.009Z,12.50
2023-02-12T23:57:37.090Z,13.18
